sensor_id;sensor_type;location;lat;lon;timestamp;temperature;humidity
17740;DHT22;8990;33.226;-97.150;2022-12-07T05:33:41;15.20;99.90
17740;DHT22;8990;33.226;-97.150;2022-12-07T05:36:12;15.20;99.90
17740;DHT22;8990;33.226;-97.150;2022-12-07T05:38:42;15.30;99.90
17740;DHT22;8990;33.226;-97.150;2022-12-07T05:41:14;15.20;99.90
17740;DHT22;8990;33.226;-97.150;2022-12-07T05:44:02;15.30;99.90
17740;DHT22;8990;33.226;-97.150;2022-12-07T05:46:31;15.40;99.90
17740;DHT22;8990;33.226;-97.150;2022-12-07T05:49:03;15.30;99.90
17740;DHT22;8990;33.226;-97.150;2022-12-07T05:51:33;15.30;99.90
17740;DHT22;8990;33.226;-97.150;2022-12-07T05:54:02;15.40;99.90
17740;DHT22;8990;33.226;-97.150;2022-12-07T05:56:31;15.40;99.90
17740;DHT22;8990;33.226;-97.150;2022-12-07T05:59:01;15.40;99.90
17740;DHT22;8990;33.226;-97.150;2022-12-07T06:01:47;15.40;99.90
17740;DHT22;8990;33.226;-97.150;2022-12-07T06:04:18;15.30;99.90
17740;DHT22;8990;33.226;-97.150;2022-12-07T06:06:48;15.30;99.90
17740;DHT22;8990;33.226;-97.150;2022-12-07T06:09:17;15.30;99.90
17740;DHT22;8990;33.226;-97.150;2022-12-07T06:11:48;15.30;99.90
17740;DHT22;8990;33.226;-97.150;2022-12-07T06:14:36;15.30;99.90
17740;DHT22;8990;33.226;-97.150;2022-12-07T06:17:05;15.30;99.90
17740;DHT22;8990;33.226;-97.150;2022-12-07T06:19:38;15.30;99.90
17740;DHT22;8990;33.226;-97.150;2022-12-07T06:22:12;15.30;99.90
17740;DHT22;8990;33.226;-97.150;2022-12-07T06:24:43;15.30;99.90
17740;DHT22;8990;33.226;-97.150;2022-12-07T06:27:12;15.30;99.90
17740;DHT22;8990;33.226;-97.150;2022-12-07T06:29:42;15.20;99.90
17740;DHT22;8990;33.226;-97.150;2022-12-07T06:32:12;15.10;99.90
17740;DHT22;8990;33.226;-97.150;2022-12-07T06:34:44;15.10;99.90
17740;DHT22;8990;33.226;-97.150;2022-12-07T06:37:13;15.00;99.90
17740;DHT22;8990;33.226;-97.150;2022-12-07T06:39:43;15.10;99.90
17740;DHT22;8990;33.226;-97.150;2022-12-07T06:42:12;15.10;99.90
17740;DHT22;8990;33.226;-97.150;2022-12-07T06:44:42;15.10;99.90
17740;DHT22;8990;33.226;-97.150;2022-12-07T06:47:11;15.10;99.90
17740;DHT22;8990;33.226;-97.150;2022-12-07T06:49:40;15.20;99.90
17740;DHT22;8990;33.226;-97.150;2022-12-07T06:52:11;15.20;99.90
17740;DHT22;8990;33.226;-97.150;2022-12-07T06:54:41;15.20;99.90
17740;DHT22;8990;33.226;-97.150;2022-12-07T06:57:10;15.20;99.90
17740;DHT22;8990;33.226;-97.150;2022-12-07T06:59:40;15.20;99.90
17740;DHT22;8990;33.226;-97.150;2022-12-07T07:02:09;15.10;99.90
17740;DHT22;8990;33.226;-97.150;2022-12-07T07:04:39;15.10;99.90
17740;DHT22;8990;33.226;-97.150;2022-12-07T07:07:11;15.10;99.90
17740;DHT22;8990;33.226;-97.150;2022-12-07T07:09:41;15.10;99.90
17740;DHT22;8990;33.226;-97.150;2022-12-07T07:12:11;15.10;99.90
17740;DHT22;8990;33.226;-97.150;2022-12-07T07:14:40;15.10;99.90
17740;DHT22;8990;33.226;-97.150;2022-12-07T07:17:11;15.10;99.90
17740;DHT22;8990;33.226;-97.150;2022-12-07T07:19:39;15.10;99.90
17740;DHT22;8990;33.226;-97.150;2022-12-07T07:22:11;15.10;99.90
17740;DHT22;8990;33.226;-97.150;2022-12-07T07:24:40;15.10;99.90
17740;DHT22;8990;33.226;-97.150;2022-12-07T07:27:09;15.10;99.90
17740;DHT22;8990;33.226;-97.150;2022-12-07T07:29:38;15.10;99.90
17740;DHT22;8990;33.226;-97.150;2022-12-07T07:32:08;15.10;99.90
17740;DHT22;8990;33.226;-97.150;2022-12-07T07:34:40;15.10;99.90
17740;DHT22;8990;33.226;-97.150;2022-12-07T07:37:11;15.10;99.90
17740;DHT22;8990;33.226;-97.150;2022-12-07T07:39:41;15.10;99.90
17740;DHT22;8990;33.226;-97.150;2022-12-07T07:42:10;15.00;99.90
17740;DHT22;8990;33.226;-97.150;2022-12-07T07:44:39;15.00;99.90
17740;DHT22;8990;33.226;-97.150;2022-12-07T07:47:08;15.00;99.90
17740;DHT22;8990;33.226;-97.150;2022-12-07T07:49:38;14.90;99.90
17740;DHT22;8990;33.226;-97.150;2022-12-07T07:52:07;14.90;99.90
17740;DHT22;8990;33.226;-97.150;2022-12-07T07:54:40;14.90;99.90
17740;DHT22;8990;33.226;-97.150;2022-12-07T07:57:09;14.90;99.90
17740;DHT22;8990;33.226;-97.150;2022-12-07T07:59:39;14.90;99.90
17740;DHT22;8990;33.226;-97.150;2022-12-07T08:02:10;14.90;99.90
17740;DHT22;8990;33.226;-97.150;2022-12-07T08:04:43;14.90;99.90
17740;DHT22;8990;33.226;-97.150;2022-12-07T08:07:14;14.90;99.90
17740;DHT22;8990;33.226;-97.150;2022-12-07T08:09:45;14.90;99.90
17740;DHT22;8990;33.226;-97.150;2022-12-07T08:12:14;14.90;99.90
17740;DHT22;8990;33.226;-97.150;2022-12-07T08:14:44;14.90;99.90
17740;DHT22;8990;33.226;-97.150;2022-12-07T08:17:13;14.90;99.90
17740;DHT22;8990;33.226;-97.150;2022-12-07T08:19:44;14.90;99.90
17740;DHT22;8990;33.226;-97.150;2022-12-07T08:22:13;14.90;99.90
17740;DHT22;8990;33.226;-97.150;2022-12-07T08:24:45;14.80;99.90
17740;DHT22;8990;33.226;-97.150;2022-12-07T08:27:14;14.80;99.90
17740;DHT22;8990;33.226;-97.150;2022-12-07T08:29:43;14.80;99.90
17740;DHT22;8990;33.226;-97.150;2022-12-07T08:32:12;14.70;99.90
17740;DHT22;8990;33.226;-97.150;2022-12-07T08:34:43;14.70;99.90
17740;DHT22;8990;33.226;-97.150;2022-12-07T08:37:13;14.70;99.90
17740;DHT22;8990;33.226;-97.150;2022-12-07T08:39:45;14.70;99.90
17740;DHT22;8990;33.226;-97.150;2022-12-07T08:42:14;14.70;99.90
17740;DHT22;8990;33.226;-97.150;2022-12-07T08:44:44;14.70;99.90
17740;DHT22;8990;33.226;-97.150;2022-12-07T08:47:14;14.70;99.90
17740;DHT22;8990;33.226;-97.150;2022-12-07T08:49:47;14.70;99.90
17740;DHT22;8990;33.226;-97.150;2022-12-07T08:52:17;14.70;99.90
17740;DHT22;8990;33.226;-97.150;2022-12-07T08:54:49;14.70;99.90
17740;DHT22;8990;33.226;-97.150;2022-12-07T08:57:18;14.60;99.90
17740;DHT22;8990;33.226;-97.150;2022-12-07T08:59:47;14.60;99.90
17740;DHT22;8990;33.226;-97.150;2022-12-07T09:02:16;14.70;99.90
17740;DHT22;8990;33.226;-97.150;2022-12-07T09:04:45;14.60;99.90
17740;DHT22;8990;33.226;-97.150;2022-12-07T09:07:15;14.70;99.90
17740;DHT22;8990;33.226;-97.150;2022-12-07T09:09:44;14.60;99.90
17740;DHT22;8990;33.226;-97.150;2022-12-07T09:12:16;14.60;99.90
17740;DHT22;8990;33.226;-97.150;2022-12-07T09:14:45;14.60;99.90
17740;DHT22;8990;33.226;-97.150;2022-12-07T09:17:15;14.50;99.90
17740;DHT22;8990;33.226;-97.150;2022-12-07T09:19:44;14.60;99.90
17740;DHT22;8990;33.226;-97.150;2022-12-07T09:22:14;14.50;99.90
17740;DHT22;8990;33.226;-97.150;2022-12-07T09:24:43;14.50;99.90
17740;DHT22;8990;33.226;-97.150;2022-12-07T09:27:15;14.60;99.90
17740;DHT22;8990;33.226;-97.150;2022-12-07T09:29:44;14.60;99.90
17740;DHT22;8990;33.226;-97.150;2022-12-07T09:32:14;14.60;99.90
17740;DHT22;8990;33.226;-97.150;2022-12-07T09:34:45;14.60;99.90
17740;DHT22;8990;33.226;-97.150;2022-12-07T09:37:15;14.60;99.90
17740;DHT22;8990;33.226;-97.150;2022-12-07T09:39:44;14.60;99.90
17740;DHT22;8990;33.226;-97.150;2022-12-07T09:42:27;14.60;99.90
17740;DHT22;8990;33.226;-97.150;2022-12-07T09:44:56;14.50;99.90
17740;DHT22;8990;33.226;-97.150;2022-12-07T09:47:27;14.50;99.90
17740;DHT22;8990;33.226;-97.150;2022-12-07T09:50:03;14.50;99.90
17740;DHT22;8990;33.226;-97.150;2022-12-07T09:52:33;14.50;99.90
17740;DHT22;8990;33.226;-97.150;2022-12-07T09:55:07;14.50;99.90
17740;DHT22;8990;33.226;-97.150;2022-12-07T09:57:40;14.50;99.90
17740;DHT22;8990;33.226;-97.150;2022-12-07T10:00:13;14.40;99.90
17740;DHT22;8990;33.226;-97.150;2022-12-07T10:02:44;14.40;99.90
17740;DHT22;8990;33.226;-97.150;2022-12-07T10:05:15;14.40;99.90
17740;DHT22;8990;33.226;-97.150;2022-12-07T10:07:46;14.50;99.90
17740;DHT22;8990;33.226;-97.150;2022-12-07T10:10:17;14.40;99.90
17740;DHT22;8990;33.226;-97.150;2022-12-07T10:12:56;14.50;99.90
17740;DHT22;8990;33.226;-97.150;2022-12-07T10:15:47;14.50;99.90
17740;DHT22;8990;33.226;-97.150;2022-12-07T10:18:24;14.40;99.90
17740;DHT22;8990;33.226;-97.150;2022-12-07T10:21:12;14.50;99.90
17740;DHT22;8990;33.226;-97.150;2022-12-07T10:24:00;14.50;99.90
17740;DHT22;8990;33.226;-97.150;2022-12-07T10:26:35;14.40;99.90
17740;DHT22;8990;33.226;-97.150;2022-12-07T10:29:15;14.40;99.90
17740;DHT22;8990;33.226;-97.150;2022-12-07T10:31:45;14.40;99.90
17740;DHT22;8990;33.226;-97.150;2022-12-07T10:34:22;14.30;99.90
17740;DHT22;8990;33.226;-97.150;2022-12-07T10:36:53;14.30;99.90
17740;DHT22;8990;33.226;-97.150;2022-12-07T10:39:23;14.20;99.90
17740;DHT22;8990;33.226;-97.150;2022-12-07T10:41:56;14.20;99.90
17740;DHT22;8990;33.226;-97.150;2022-12-07T10:44:29;14.10;99.90
17740;DHT22;8990;33.226;-97.150;2022-12-07T10:47:18;14.10;99.90
17740;DHT22;8990;33.226;-97.150;2022-12-07T10:50:18;14.10;99.90
17740;DHT22;8990;33.226;-97.150;2022-12-07T10:53:16;14.10;99.90
17740;DHT22;8990;33.226;-97.150;2022-12-07T10:56:00;14.10;99.90
17740;DHT22;8990;33.226;-97.150;2022-12-07T10:58:42;14.00;99.90
17740;DHT22;8990;33.226;-97.150;2022-12-07T11:01:24;14.00;99.90
17740;DHT22;8990;33.226;-97.150;2022-12-07T11:04:16;14.00;99.90
17740;DHT22;8990;33.226;-97.150;2022-12-07T11:06:53;14.00;99.90
17740;DHT22;8990;33.226;-97.150;2022-12-07T11:12:32;14.10;99.90
17740;DHT22;8990;33.226;-97.150;2022-12-07T11:15:11;14.10;99.90
17740;DHT22;8990;33.226;-97.150;2022-12-07T11:17:51;14.10;99.90
17740;DHT22;8990;33.226;-97.150;2022-12-07T11:20:37;14.00;99.90
17740;DHT22;8990;33.226;-97.150;2022-12-07T11:23:16;14.00;99.90
17740;DHT22;8990;33.226;-97.150;2022-12-07T11:25:54;14.00;99.90
17740;DHT22;8990;33.226;-97.150;2022-12-07T11:28:35;13.90;99.90
17740;DHT22;8990;33.226;-97.150;2022-12-07T11:31:14;13.90;99.90
17740;DHT22;8990;33.226;-97.150;2022-12-07T11:33:52;13.90;99.90
17740;DHT22;8990;33.226;-97.150;2022-12-07T11:36:38;13.90;99.90
17740;DHT22;8990;33.226;-97.150;2022-12-07T11:39:16;13.90;99.90
17740;DHT22;8990;33.226;-97.150;2022-12-07T11:41:52;13.90;99.90
17740;DHT22;8990;33.226;-97.150;2022-12-07T11:44:32;14.00;99.90
17740;DHT22;8990;33.226;-97.150;2022-12-07T11:47:07;14.00;99.90
17740;DHT22;8990;33.226;-97.150;2022-12-07T11:49:44;13.90;99.90
17740;DHT22;8990;33.226;-97.150;2022-12-07T11:52:22;13.90;99.90
17740;DHT22;8990;33.226;-97.150;2022-12-07T11:54:53;13.90;99.90
17740;DHT22;8990;33.226;-97.150;2022-12-07T11:57:32;13.90;99.90
17740;DHT22;8990;33.226;-97.150;2022-12-07T12:00:12;13.90;99.90
17740;DHT22;8990;33.226;-97.150;2022-12-07T12:02:48;13.90;99.90
17740;DHT22;8990;33.226;-97.150;2022-12-07T12:05:21;13.90;99.90
17740;DHT22;8990;33.226;-97.150;2022-12-07T12:07:57;13.80;99.90
17740;DHT22;8990;33.226;-97.150;2022-12-07T12:10:36;13.80;99.90
17740;DHT22;8990;33.226;-97.150;2022-12-07T12:13:34;13.70;99.90
17740;DHT22;8990;33.226;-97.150;2022-12-07T12:16:26;13.80;99.90
17740;DHT22;8990;33.226;-97.150;2022-12-07T12:19:23;13.80;99.90
17740;DHT22;8990;33.226;-97.150;2022-12-07T12:22:00;13.80;99.90
17740;DHT22;8990;33.226;-97.150;2022-12-07T12:24:33;13.80;99.90
17740;DHT22;8990;33.226;-97.150;2022-12-07T12:27:06;13.80;99.90
17740;DHT22;8990;33.226;-97.150;2022-12-07T12:29:39;13.80;99.90
17740;DHT22;8990;33.226;-97.150;2022-12-07T12:32:17;13.80;99.90
17740;DHT22;8990;33.226;-97.150;2022-12-07T12:35:02;13.80;99.90
17740;DHT22;8990;33.226;-97.150;2022-12-07T12:37:42;13.80;99.90
17740;DHT22;8990;33.226;-97.150;2022-12-07T12:43:46;13.90;99.90
17740;DHT22;8990;33.226;-97.150;2022-12-07T12:49:35;13.90;99.90
17740;DHT22;8990;33.226;-97.150;2022-12-07T12:58:31;13.80;99.90
17740;DHT22;8990;33.226;-97.150;2022-12-07T13:07:55;13.80;99.90
17740;DHT22;8990;33.226;-97.150;2022-12-07T13:10:40;13.80;99.90
17740;DHT22;8990;33.226;-97.150;2022-12-07T13:13:32;13.80;99.90
17740;DHT22;8990;33.226;-97.150;2022-12-07T13:22:50;13.80;99.90
17740;DHT22;8990;33.226;-97.150;2022-12-07T13:25:41;13.80;99.90
17740;DHT22;8990;33.226;-97.150;2022-12-07T13:28:16;13.90;99.90
17740;DHT22;8990;33.226;-97.150;2022-12-07T13:30:58;13.80;99.90
17740;DHT22;8990;33.226;-97.150;2022-12-07T13:33:30;13.90;99.90
17740;DHT22;8990;33.226;-97.150;2022-12-07T13:35:59;13.90;99.90
17740;DHT22;8990;33.226;-97.150;2022-12-07T13:38:32;13.90;99.90
17740;DHT22;8990;33.226;-97.150;2022-12-07T13:41:11;13.90;99.90
17740;DHT22;8990;33.226;-97.150;2022-12-07T13:43:58;13.90;99.90
17740;DHT22;8990;33.226;-97.150;2022-12-07T13:46:42;13.90;99.90
17740;DHT22;8990;33.226;-97.150;2022-12-07T13:49:21;13.90;99.90
17740;DHT22;8990;33.226;-97.150;2022-12-07T13:51:51;13.90;99.90
17740;DHT22;8990;33.226;-97.150;2022-12-07T13:54:22;13.90;99.90
17740;DHT22;8990;33.226;-97.150;2022-12-07T13:56:53;13.90;99.90
17740;DHT22;8990;33.226;-97.150;2022-12-07T13:59:24;13.90;99.90
17740;DHT22;8990;33.226;-97.150;2022-12-07T14:01:55;14.00;99.90
17740;DHT22;8990;33.226;-97.150;2022-12-07T14:04:32;13.90;99.90
17740;DHT22;8990;33.226;-97.150;2022-12-07T14:07:19;13.90;99.90
17740;DHT22;8990;33.226;-97.150;2022-12-07T14:09:58;13.90;99.90
17740;DHT22;8990;33.226;-97.150;2022-12-07T14:12:29;13.90;99.90
17740;DHT22;8990;33.226;-97.150;2022-12-07T14:15:02;13.90;99.90
17740;DHT22;8990;33.226;-97.150;2022-12-07T14:17:33;13.80;99.90
17740;DHT22;8990;33.226;-97.150;2022-12-07T14:20:27;13.90;99.90
17740;DHT22;8990;33.226;-97.150;2022-12-07T14:22:56;13.90;99.90
17740;DHT22;8990;33.226;-97.150;2022-12-07T14:25:27;14.00;99.90
17740;DHT22;8990;33.226;-97.150;2022-12-07T14:28:00;13.90;99.90
17740;DHT22;8990;33.226;-97.150;2022-12-07T14:30:30;14.00;99.90
17740;DHT22;8990;33.226;-97.150;2022-12-07T14:33:01;14.00;99.90
17740;DHT22;8990;33.226;-97.150;2022-12-07T14:35:31;14.00;99.90
17740;DHT22;8990;33.226;-97.150;2022-12-07T14:38:02;14.00;99.90
17740;DHT22;8990;33.226;-97.150;2022-12-07T14:40:32;14.00;99.90
17740;DHT22;8990;33.226;-97.150;2022-12-07T14:43:05;14.10;99.90
17740;DHT22;8990;33.226;-97.150;2022-12-07T14:45:38;14.00;99.90
17740;DHT22;8990;33.226;-97.150;2022-12-07T14:48:09;14.10;99.90
17740;DHT22;8990;33.226;-97.150;2022-12-07T14:50:42;14.10;99.90
17740;DHT22;8990;33.226;-97.150;2022-12-07T14:53:17;14.10;99.90
17740;DHT22;8990;33.226;-97.150;2022-12-07T14:55:48;14.10;99.90
17740;DHT22;8990;33.226;-97.150;2022-12-07T14:58:18;14.10;99.90
17740;DHT22;8990;33.226;-97.150;2022-12-07T15:00:49;14.20;99.90
17740;DHT22;8990;33.226;-97.150;2022-12-07T15:03:18;14.20;99.90
17740;DHT22;8990;33.226;-97.150;2022-12-07T15:05:47;14.20;99.90
17740;DHT22;8990;33.226;-97.150;2022-12-07T15:08:16;14.20;99.90
17740;DHT22;8990;33.226;-97.150;2022-12-07T15:10:46;14.30;99.90
17740;DHT22;8990;33.226;-97.150;2022-12-07T15:13:18;14.30;99.90
17740;DHT22;8990;33.226;-97.150;2022-12-07T15:16:07;14.30;99.90
17740;DHT22;8990;33.226;-97.150;2022-12-07T15:18:38;14.30;99.90
17740;DHT22;8990;33.226;-97.150;2022-12-07T15:21:11;14.40;99.90
17740;DHT22;8990;33.226;-97.150;2022-12-07T15:23:41;14.40;99.90
17740;DHT22;8990;33.226;-97.150;2022-12-07T15:26:11;14.40;99.90
17740;DHT22;8990;33.226;-97.150;2022-12-07T15:28:42;14.40;99.90
17740;DHT22;8990;33.226;-97.150;2022-12-07T15:31:13;14.50;99.90
17740;DHT22;8990;33.226;-97.150;2022-12-07T15:33:42;14.50;99.90
17740;DHT22;8990;33.226;-97.150;2022-12-07T15:36:19;14.50;99.90
17740;DHT22;8990;33.226;-97.150;2022-12-07T15:38:49;14.60;99.90
17740;DHT22;8990;33.226;-97.150;2022-12-07T15:41:18;14.60;99.90
17740;DHT22;8990;33.226;-97.150;2022-12-07T15:43:49;14.60;99.90
17740;DHT22;8990;33.226;-97.150;2022-12-07T15:46:36;14.60;99.90
17740;DHT22;8990;33.226;-97.150;2022-12-07T15:49:10;14.70;99.90
17740;DHT22;8990;33.226;-97.150;2022-12-07T15:51:41;14.70;99.90
17740;DHT22;8990;33.226;-97.150;2022-12-07T15:54:16;14.70;99.90
17740;DHT22;8990;33.226;-97.150;2022-12-07T15:56:46;14.70;99.90
17740;DHT22;8990;33.226;-97.150;2022-12-07T15:59:17;14.70;99.90
17740;DHT22;8990;33.226;-97.150;2022-12-07T16:01:47;14.80;99.90
17740;DHT22;8990;33.226;-97.150;2022-12-07T16:04:17;14.80;99.90
17740;DHT22;8990;33.226;-97.150;2022-12-07T16:06:47;14.90;99.90
17740;DHT22;8990;33.226;-97.150;2022-12-07T16:09:17;14.90;99.90
17740;DHT22;8990;33.226;-97.150;2022-12-07T16:11:48;15.00;99.90
17740;DHT22;8990;33.226;-97.150;2022-12-07T16:14:21;15.00;99.90
17740;DHT22;8990;33.226;-97.150;2022-12-07T16:16:51;15.10;99.90
17740;DHT22;8990;33.226;-97.150;2022-12-07T16:19:21;15.10;99.90
17740;DHT22;8990;33.226;-97.150;2022-12-07T16:21:50;15.10;99.90
17740;DHT22;8990;33.226;-97.150;2022-12-07T16:24:20;15.20;99.90
17740;DHT22;8990;33.226;-97.150;2022-12-07T16:26:50;15.10;99.90
17740;DHT22;8990;33.226;-97.150;2022-12-07T16:29:22;15.20;99.90
17740;DHT22;8990;33.226;-97.150;2022-12-07T16:31:53;15.20;99.90
17740;DHT22;8990;33.226;-97.150;2022-12-07T16:34:23;15.20;99.90
17740;DHT22;8990;33.226;-97.150;2022-12-07T16:36:52;15.20;99.90
17740;DHT22;8990;33.226;-97.150;2022-12-07T16:39:22;15.20;99.90
17740;DHT22;8990;33.226;-97.150;2022-12-07T16:41:51;15.20;99.90
17740;DHT22;8990;33.226;-97.150;2022-12-07T16:44:23;15.20;99.90
17740;DHT22;8990;33.226;-97.150;2022-12-07T16:46:52;15.20;99.90
17740;DHT22;8990;33.226;-97.150;2022-12-07T16:49:23;15.20;99.90
17740;DHT22;8990;33.226;-97.150;2022-12-07T16:51:52;15.20;99.90
17740;DHT22;8990;33.226;-97.150;2022-12-07T16:54:22;15.20;99.90
17740;DHT22;8990;33.226;-97.150;2022-12-07T16:56:54;15.20;99.90
17740;DHT22;8990;33.226;-97.150;2022-12-07T16:59:25;15.20;99.90
17740;DHT22;8990;33.226;-97.150;2022-12-07T17:01:54;15.20;99.90
17740;DHT22;8990;33.226;-97.150;2022-12-07T17:04:24;15.20;99.90
17740;DHT22;8990;33.226;-97.150;2022-12-07T17:06:55;15.10;99.90
17740;DHT22;8990;33.226;-97.150;2022-12-07T17:09:25;15.10;99.90
17740;DHT22;8990;33.226;-97.150;2022-12-07T17:11:55;15.10;99.90
17740;DHT22;8990;33.226;-97.150;2022-12-07T17:14:26;15.10;99.90
17740;DHT22;8990;33.226;-97.150;2022-12-07T17:17:13;15.10;99.90
17740;DHT22;8990;33.226;-97.150;2022-12-07T17:19:44;15.10;99.90
17740;DHT22;8990;33.226;-97.150;2022-12-07T17:22:14;15.10;99.90
17740;DHT22;8990;33.226;-97.150;2022-12-07T17:24:43;15.10;99.90
17740;DHT22;8990;33.226;-97.150;2022-12-07T17:27:13;15.10;99.90
17740;DHT22;8990;33.226;-97.150;2022-12-07T17:29:45;15.10;99.90
17740;DHT22;8990;33.226;-97.150;2022-12-07T17:32:15;15.10;99.90
17740;DHT22;8990;33.226;-97.150;2022-12-07T17:34:46;15.00;99.90
17740;DHT22;8990;33.226;-97.150;2022-12-07T17:37:15;15.10;99.90
17740;DHT22;8990;33.226;-97.150;2022-12-07T17:39:44;15.10;99.90
17740;DHT22;8990;33.226;-97.150;2022-12-07T17:42:14;15.10;99.90
17740;DHT22;8990;33.226;-97.150;2022-12-07T17:45:02;15.10;99.90
17740;DHT22;8990;33.226;-97.150;2022-12-07T17:47:31;15.10;99.90
17740;DHT22;8990;33.226;-97.150;2022-12-07T17:50:02;15.10;99.90
17740;DHT22;8990;33.226;-97.150;2022-12-07T17:52:33;15.10;99.90
17740;DHT22;8990;33.226;-97.150;2022-12-07T17:55:19;15.10;99.90
17740;DHT22;8990;33.226;-97.150;2022-12-07T17:57:48;15.00;99.90
17740;DHT22;8990;33.226;-97.150;2022-12-07T18:00:19;15.00;99.90
17740;DHT22;8990;33.226;-97.150;2022-12-07T18:02:49;15.00;99.90
17740;DHT22;8990;33.226;-97.150;2022-12-07T18:05:18;15.00;99.90
17740;DHT22;8990;33.226;-97.150;2022-12-07T18:07:47;15.00;99.90
17740;DHT22;8990;33.226;-97.150;2022-12-07T18:10:16;15.00;99.90
17740;DHT22;8990;33.226;-97.150;2022-12-07T18:12:46;15.00;99.90
17740;DHT22;8990;33.226;-97.150;2022-12-07T18:15:18;15.00;99.90
17740;DHT22;8990;33.226;-97.150;2022-12-07T18:17:47;15.00;99.90
17740;DHT22;8990;33.226;-97.150;2022-12-07T18:20:18;15.00;99.90
17740;DHT22;8990;33.226;-97.150;2022-12-07T18:22:46;15.00;99.90
17740;DHT22;8990;33.226;-97.150;2022-12-07T18:25:17;15.00;99.90
17740;DHT22;8990;33.226;-97.150;2022-12-07T18:27:47;15.00;99.90
17740;DHT22;8990;33.226;-97.150;2022-12-07T18:30:18;15.00;99.90
17740;DHT22;8990;33.226;-97.150;2022-12-07T18:32:48;15.00;99.90
17740;DHT22;8990;33.226;-97.150;2022-12-07T18:35:19;15.10;99.90
17740;DHT22;8990;33.226;-97.150;2022-12-07T18:37:47;15.10;99.90
17740;DHT22;8990;33.226;-97.150;2022-12-07T18:40:19;15.10;99.90
17740;DHT22;8990;33.226;-97.150;2022-12-07T18:42:49;15.20;99.90
17740;DHT22;8990;33.226;-97.150;2022-12-07T18:45:20;15.20;99.90
17740;DHT22;8990;33.226;-97.150;2022-12-07T18:47:49;15.20;99.90
17740;DHT22;8990;33.226;-97.150;2022-12-07T18:50:19;15.20;99.90
17740;DHT22;8990;33.226;-97.150;2022-12-07T18:52:50;15.30;99.90
17740;DHT22;8990;33.226;-97.150;2022-12-07T18:55:18;15.30;99.90
17740;DHT22;8990;33.226;-97.150;2022-12-07T18:57:48;15.20;99.90
17740;DHT22;8990;33.226;-97.150;2022-12-07T19:00:20;15.30;99.90
17740;DHT22;8990;33.226;-97.150;2022-12-07T19:02:50;15.30;99.90
17740;DHT22;8990;33.226;-97.150;2022-12-07T19:05:20;15.30;99.90
17740;DHT22;8990;33.226;-97.150;2022-12-07T19:07:50;15.30;99.90
17740;DHT22;8990;33.226;-97.150;2022-12-07T19:10:19;15.30;99.90
17740;DHT22;8990;33.226;-97.150;2022-12-07T19:12:50;15.30;99.90
17740;DHT22;8990;33.226;-97.150;2022-12-07T19:15:21;15.30;99.90
17740;DHT22;8990;33.226;-97.150;2022-12-07T19:17:51;15.30;99.90
17740;DHT22;8990;33.226;-97.150;2022-12-07T19:20:20;15.30;99.90
17740;DHT22;8990;33.226;-97.150;2022-12-07T19:22:50;15.30;99.90
17740;DHT22;8990;33.226;-97.150;2022-12-07T19:25:20;15.40;99.90
17740;DHT22;8990;33.226;-97.150;2022-12-07T19:27:49;15.40;99.90
17740;DHT22;8990;33.226;-97.150;2022-12-07T19:30:21;15.40;99.90
17740;DHT22;8990;33.226;-97.150;2022-12-07T19:32:50;15.40;99.90
17740;DHT22;8990;33.226;-97.150;2022-12-07T19:35:21;15.40;99.90
17740;DHT22;8990;33.226;-97.150;2022-12-07T19:37:51;15.50;99.90
17740;DHT22;8990;33.226;-97.150;2022-12-07T19:40:20;15.50;99.90
17740;DHT22;8990;33.226;-97.150;2022-12-07T19:42:49;15.50;99.90
17740;DHT22;8990;33.226;-97.150;2022-12-07T19:45:20;15.50;99.90
17740;DHT22;8990;33.226;-97.150;2022-12-07T19:47:50;15.50;99.90
17740;DHT22;8990;33.226;-97.150;2022-12-07T19:50:20;15.50;99.90
17740;DHT22;8990;33.226;-97.150;2022-12-07T19:52:50;15.60;99.90
17740;DHT22;8990;33.226;-97.150;2022-12-07T19:55:22;15.60;99.90
17740;DHT22;8990;33.226;-97.150;2022-12-07T19:57:50;15.60;99.90
17740;DHT22;8990;33.226;-97.150;2022-12-07T20:00:22;15.60;99.90
17740;DHT22;8990;33.226;-97.150;2022-12-07T20:02:51;15.50;99.90
17740;DHT22;8990;33.226;-97.150;2022-12-07T20:05:20;15.60;99.90
17740;DHT22;8990;33.226;-97.150;2022-12-07T20:07:51;15.60;99.90
17740;DHT22;8990;33.226;-97.150;2022-12-07T20:10:19;15.70;99.90
17740;DHT22;8990;33.226;-97.150;2022-12-07T20:12:49;15.70;99.90
17740;DHT22;8990;33.226;-97.150;2022-12-07T20:15:38;15.70;99.90
17740;DHT22;8990;33.226;-97.150;2022-12-07T20:18:08;15.80;99.90
17740;DHT22;8990;33.226;-97.150;2022-12-07T20:20:37;15.80;99.90
17740;DHT22;8990;33.226;-97.150;2022-12-07T20:23:06;15.80;99.90
17740;DHT22;8990;33.226;-97.150;2022-12-07T20:25:35;15.80;99.90
17740;DHT22;8990;33.226;-97.150;2022-12-07T20:28:04;15.90;99.90
17740;DHT22;8990;33.226;-97.150;2022-12-07T20:30:34;15.90;99.90
17740;DHT22;8990;33.226;-97.150;2022-12-07T20:33:06;15.90;99.90
17740;DHT22;8990;33.226;-97.150;2022-12-07T20:35:35;15.90;99.90
17740;DHT22;8990;33.226;-97.150;2022-12-07T20:38:06;16.00;99.90
17740;DHT22;8990;33.226;-97.150;2022-12-07T20:40:35;15.90;99.90
17740;DHT22;8990;33.226;-97.150;2022-12-07T20:43:08;15.90;99.90
17740;DHT22;8990;33.226;-97.150;2022-12-07T20:45:43;16.00;99.90
17740;DHT22;8990;33.226;-97.150;2022-12-07T20:48:15;16.00;99.90
17740;DHT22;8990;33.226;-97.150;2022-12-07T20:50:45;15.90;99.90
17740;DHT22;8990;33.226;-97.150;2022-12-07T20:53:14;16.00;99.90
17740;DHT22;8990;33.226;-97.150;2022-12-07T20:55:45;15.90;99.90
17740;DHT22;8990;33.226;-97.150;2022-12-07T20:58:15;15.90;99.90
17740;DHT22;8990;33.226;-97.150;2022-12-07T21:00:44;15.90;99.90
17740;DHT22;8990;33.226;-97.150;2022-12-07T21:03:15;15.90;99.90
17740;DHT22;8990;33.226;-97.150;2022-12-07T21:05:45;15.90;99.90
17740;DHT22;8990;33.226;-97.150;2022-12-07T21:08:15;15.90;99.90
17740;DHT22;8990;33.226;-97.150;2022-12-07T21:10:44;15.90;99.90
17740;DHT22;8990;33.226;-97.150;2022-12-07T21:13:14;15.90;99.90
17740;DHT22;8990;33.226;-97.150;2022-12-07T21:15:43;15.80;99.90
17740;DHT22;8990;33.226;-97.150;2022-12-07T21:18:14;15.90;99.90
17740;DHT22;8990;33.226;-97.150;2022-12-07T21:20:44;15.90;99.90
17740;DHT22;8990;33.226;-97.150;2022-12-07T21:23:14;15.90;99.90
17740;DHT22;8990;33.226;-97.150;2022-12-07T21:25:44;15.90;99.90
17740;DHT22;8990;33.226;-97.150;2022-12-07T21:28:14;15.90;99.90
17740;DHT22;8990;33.226;-97.150;2022-12-07T21:30:43;15.90;99.90
17740;DHT22;8990;33.226;-97.150;2022-12-07T21:33:15;15.90;99.90
17740;DHT22;8990;33.226;-97.150;2022-12-07T21:35:44;15.90;99.90
17740;DHT22;8990;33.226;-97.150;2022-12-07T21:38:14;15.90;99.90
17740;DHT22;8990;33.226;-97.150;2022-12-07T21:40:44;16.00;99.90
17740;DHT22;8990;33.226;-97.150;2022-12-07T21:43:13;16.00;99.90
17740;DHT22;8990;33.226;-97.150;2022-12-07T21:45:42;16.00;99.90
17740;DHT22;8990;33.226;-97.150;2022-12-07T21:48:14;16.00;99.90
17740;DHT22;8990;33.226;-97.150;2022-12-07T21:50:43;16.00;99.90